Time;durP1;ratioP1;P1;durP2;ratioP2;P2;SDS_P1;SDS_P2;PMS_P1;PMS_P2;Temp;Humidity;BMP_temperature;BMP_pressure;BME280_temperature;BME280_humidity;BME280_pressure;Samples;Min_cycle;Max_cycle;Signal;HPM_P1;HPM_P2
2022/06/02 00:02:33;;;;;;;20.35;6.72;;;;;;;23.83;45.20;99774.75;5011134;28;20045;-74
2022/06/02 00:05:08;;;;;;;21.98;7.53;;;;;;;23.90;45.52;99767.28;4943736;28;20054;-75
2022/06/02 00:08:00;;;;;;;14.00;7.18;;;;;;;24.03;45.11;99777.91;5010684;28;20463;-75
2022/06/02 00:10:40;;;;;;;14.15;7.13;;;;;;;23.87;45.38;99771.31;5009720;28;20053;-75
2022/06/02 00:13:23;;;;;;;18.55;7.20;;;;;;;23.84;45.27;99779.13;4993778;28;20415;-75
2022/06/02 00:15:54;;;;;;;12.98;6.90;;;;;;;23.61;46.00;99776.44;5009784;28;20040;-75
2022/06/02 00:18:27;;;;;;;14.60;6.85;;;;;;;23.75;45.63;99769.69;4993701;28;20099;-75
2022/06/02 00:21:18;;;;;;;10.75;6.15;;;;;;;23.49;45.53;99746.66;4994138;28;20050;-76
2022/06/02 00:24:06;;;;;;;12.65;6.15;;;;;;;23.56;46.01;99769.03;4993444;28;20411;-75
2022/06/02 00:27:14;;;;;;;10.68;6.10;;;;;;;23.61;45.51;99773.75;5009400;28;20044;-75
2022/06/02 00:29:56;;;;;;;12.52;5.93;;;;;;;23.61;45.43;99774.56;4989380;28;20046;-74
2022/06/02 00:32:39;;;;;;;12.13;6.82;;;;;;;23.50;45.67;99753.72;4973038;28;20136;-75
2022/06/02 00:35:10;;;;;;;13.35;6.60;;;;;;;23.85;44.95;99776.16;4973879;28;20053;-75
2022/06/02 00:38:03;;;;;;;12.57;6.50;;;;;;;24.02;44.19;99763.50;4990240;28;20046;-75
2022/06/02 00:40:32;;;;;;;9.93;6.00;;;;;;;23.65;44.88;99774.94;5006174;28;20053;-74
2022/06/02 00:43:18;;;;;;;15.32;7.03;;;;;;;23.70;44.96;99775.84;4990066;28;20526;-74
2022/06/02 00:45:46;;;;;;;13.20;6.43;;;;;;;23.51;45.66;99774.34;5005971;28;20050;-73
2022/06/02 00:48:14;;;;;;;10.80;6.63;;;;;;;23.59;45.06;99770.47;5006402;28;20133;-73
2022/06/02 00:50:58;;;;;;;16.92;7.90;;;;;;;23.73;45.27;99758.25;5005766;28;20107;-73
2022/06/02 00:57:30;;;;;;;12.10;7.03;;;;;;;23.82;45.01;99762.28;4973739;28;20061;-73
2022/06/02 00:59:59;;;;;;;18.98;7.72;;;;;;;23.54;45.41;99771.16;4991222;28;20046;-75
2022/06/02 01:02:27;;;;;;;13.30;7.43;;;;;;;23.45;45.74;99764.44;4934024;29;20102;-76
2022/06/02 01:05:00;;;;;;;17.95;7.80;;;;;;;23.28;46.00;99756.22;4979646;28;20061;-75
2022/06/02 01:07:54;;;;;;;16.25;8.60;;;;;;;23.40;46.01;99758.94;4958058;28;20097;-76
2022/06/02 01:10:25;;;;;;;12.27;8.60;;;;;;;23.10;46.68;99753.63;4973583;28;20053;-74
2022/06/02 01:13:24;;;;;;;12.73;8.02;;;;;;;23.18;46.41;99753.28;4973423;28;20140;-76
2022/06/02 01:16:15;;;;;;;15.07;8.32;;;;;;;23.26;46.25;99762.97;4944481;28;20530;-75
2022/06/02 01:18:55;;;;;;;;;;;;;;;23.36;45.86;99771.31;4989950;28;20128;-75
2022/06/02 01:22:04;;;;;;;11.25;7.80;;;;;;;23.28;46.14;99766.22;4989632;28;19921;-76
2022/06/02 01:24:57;;;;;;;13.15;8.30;;;;;;;23.26;46.40;99771.88;4991732;28;20069;-76
2022/06/02 01:27:41;;;;;;;10.52;7.75;;;;;;;23.21;46.35;99769.06;4993134;28;20097;-77
2022/06/02 01:30:42;;;;;;;12.95;7.57;;;;;;;23.21;46.06;99744.66;4991323;28;20133;-75
2022/06/02 01:33:33;;;;;;;16.90;7.72;;;;;;;23.39;45.60;99768.13;4974835;28;20057;-76
2022/06/02 01:36:24;;;;;;;13.23;7.20;;;;;;;23.38;45.54;99777.31;4957417;28;20061;-76
2022/06/02 01:39:13;;;;;;;10.40;7.10;;;;;;;23.47;45.50;99756.06;4972502;28;20574;-73
2022/06/02 01:41:58;;;;;;;9.30;6.78;;;;;;;23.43;45.58;99774.72;4957706;28;20112;-75
2022/06/02 01:44:33;;;;;;;10.50;6.68;;;;;;;23.27;46.06;99764.59;4974564;28;20550;-74
2022/06/02 01:47:10;;;;;;;11.13;6.78;;;;;;;23.50;45.57;99766.44;4958864;28;20483;-73
2022/06/02 01:49:39;;;;;;;10.38;6.28;;;;;;;23.01;46.03;99760.44;4973578;28;20429;-73
2022/06/02 01:52:18;;;;;;;9.00;6.70;;;;;;;23.19;45.91;99725.09;4956834;28;20066;-73
2022/06/02 01:54:46;;;;;;;8.48;6.32;;;;;;;22.93;46.45;99741.84;5005933;28;20092;-72
2022/06/02 01:57:34;;;;;;;10.30;6.38;;;;;;;23.27;45.74;99748.34;4990307;28;20131;-73
2022/06/02 02:00:08;;;;;;;12.52;6.63;;;;;;;23.36;45.65;99748.81;4957656;28;20050;-72
2022/06/02 02:03:11;;;;;;;8.38;5.95;;;;;;;23.34;45.31;99753.63;4993545;28;20046;-73
2022/06/02 02:05:48;;;;;;;11.95;6.28;;;;;;;23.30;45.58;99747.84;4993791;28;20443;-73
2022/06/02 02:08:33;;;;;;;11.15;5.45;;;;;;;23.06;45.74;99752.41;4994111;28;20046;-73
2022/06/02 02:11:30;;;;;;;11.85;6.60;;;;;;;23.22;45.43;99749.00;4977254;28;20050;-74
2022/06/02 02:14:07;;;;;;;13.23;6.18;;;;;;;23.18;45.71;99750.56;4961444;28;20046;-73
2022/06/02 02:17:00;;;;;;;10.85;6.18;;;;;;;23.39;45.38;99751.03;4993793;28;20054;-72
2022/06/02 02:19:44;;;;;;;10.68;5.70;;;;;;;23.19;45.54;99749.50;4993414;28;20053;-73
2022/06/02 02:22:21;;;;;;;11.45;6.05;;;;;;;23.48;44.74;99744.19;5009295;28;20050;-73
2022/06/02 02:25:12;;;;;;;9.85;5.70;;;;;;;23.65;44.59;99753.22;5009139;28;20081;-73
2022/06/02 02:28:16;;;;;;;12.20;5.63;;;;;;;23.70;44.43;99739.75;4960056;28;20078;-73
2022/06/02 02:30:45;;;;;;;9.77;5.60;;;;;;;23.75;44.27;99748.84;4952731;29;20402;-72
2022/06/02 02:33:29;;;;;;;8.48;4.80;;;;;;;24.00;43.46;99737.69;4984985;28;20057;-72
2022/06/02 02:36:03;;;;;;;9.90;5.05;;;;;;;23.89;43.80;99741.25;4992266;28;20116;-71
2022/06/02 02:38:48;;;;;;;8.75;4.55;;;;;;;23.96;43.32;99734.63;5008649;28;20054;-74
2022/06/02 02:41:29;;;;;;;9.70;4.85;;;;;;;24.12;43.28;99752.88;4992452;28;20504;-73
2022/06/02 02:43:56;;;;;;;12.07;5.07;;;;;;;23.83;43.55;99739.50;4991900;28;20054;-72
2022/06/02 02:46:45;;;;;;;12.52;4.85;;;;;;;23.77;43.62;99735.84;4992105;28;20077;-72
2022/06/02 02:49:35;;;;;;;9.80;4.72;;;;;;;24.20;42.91;99741.59;4984061;28;20092;-70
2022/06/02 02:52:07;;;;;;;5.70;3.92;;;;;;;24.28;42.37;99729.56;4975525;28;20452;-72
2022/06/02 02:54:57;;;;;;;5.60;4.50;;;;;;;24.37;42.60;99736.22;4991933;28;20038;-72
2022/06/02 02:57:31;;;;;;;9.10;4.22;;;;;;;24.37;42.34;99741.66;5007998;28;20093;-71
2022/06/02 03:00:15;;;;;;;8.45;4.18;;;;;;;24.34;41.87;99731.28;4975388;28;20038;-73
2022/06/02 03:03:05;;;;;;;10.68;4.03;;;;;;;24.21;42.87;99735.13;4991601;28;20046;-72
2022/06/02 03:05:42;;;;;;;6.33;4.17;;;;;;;24.21;42.82;99716.13;4959114;28;20046;-72
2022/06/02 03:08:15;;;;;;;7.80;4.30;;;;;;;24.04;42.74;99720.69;4975732;28;20301;-74
2022/06/02 03:10:44;;;;;;;7.63;3.90;;;;;;;24.19;42.82;99709.28;5008157;28;20137;-74
2022/06/02 03:13:15;;;;;;;6.13;4.43;;;;;;;24.14;42.91;99717.34;4991358;28;20042;-74
2022/06/02 03:15:45;;;;;;;7.20;4.43;;;;;;;24.26;42.67;99708.06;4992474;28;20066;-73
2022/06/02 03:18:35;;;;;;;11.48;4.55;;;;;;;24.02;43.05;99714.66;4991120;28;20123;-73
2022/06/02 03:21:36;;;;;;;11.25;4.15;;;;;;;24.30;42.57;99705.69;4974909;28;20512;-73
2022/06/02 03:24:28;;;;;;;8.63;4.00;;;;;;;24.11;42.49;99718.63;4992318;28;20042;-73
2022/06/02 03:27:39;;;;;;;8.52;4.15;;;;;;;23.74;43.56;99689.41;4991016;28;20042;-73
2022/06/02 03:30:25;;;;;;;7.70;4.25;;;;;;;23.63;43.99;99717.38;4964652;28;20157;-73
2022/06/02 03:33:01;;;;;;;12.02;3.92;;;;;;;24.06;43.31;99724.00;4990708;28;20074;-73
2022/06/02 03:35:44;;;;;;;8.48;3.97;;;;;;;24.20;42.66;99724.50;5007330;28;20455;-72
2022/06/02 03:38:19;;;;;;;7.18;4.45;;;;;;;24.34;42.93;99728.56;4991228;28;20038;-74
2022/06/02 03:41:06;;;;;;;9.63;4.30;;;;;;;24.44;42.45;99743.16;4975255;28;20125;-73
2022/06/02 03:43:56;;;;;;;11.85;4.10;;;;;;;24.54;41.87;99750.66;4975830;28;20042;-75
2022/06/02 03:46:27;;;;;;;4.85;3.60;;;;;;;24.09;42.63;99750.66;4975098;28;20061;-74
2022/06/02 03:49:18;;;;;;;11.50;4.25;;;;;;;24.35;42.49;99755.47;4959070;28;20113;-74
2022/06/02 03:52:02;;;;;;;7.43;4.07;;;;;;;24.23;43.13;99748.44;4974267;28;20499;-73
2022/06/02 03:54:58;;;;;;;9.13;4.05;;;;;;;24.34;43.13;99742.16;5006811;28;20051;-73
2022/06/02 03:57:59;;;;;;;10.25;4.60;;;;;;;24.33;43.34;99760.31;5006854;28;20050;-73
2022/06/02 04:00:26;;;;;;;;;;;;;;;24.54;43.02;99762.31;4982803;28;20042;-72
2022/06/02 04:02:54;;;;;;;14.82;5.50;;;;;;;24.35;43.64;99757.34;4974767;28;19968;-74
2022/06/02 04:05:26;;;;;;;12.85;5.32;;;;;;;24.21;43.32;99756.00;5007206;28;20070;-73
2022/06/02 04:08:23;;;;;;;12.85;6.05;;;;;;;24.13;43.75;99759.94;5007196;28;20092;-74
2022/06/02 04:11:03;;;;;;;13.52;5.43;;;;;;;24.23;43.95;99746.53;4993139;28;20050;-73
2022/06/02 04:14:16;;;;;;;13.10;5.53;;;;;;;24.48;43.22;99757.03;4976729;28;20042;-74
2022/06/02 04:17:05;;;;;;;11.77;5.55;;;;;;;24.45;43.40;99752.09;4988017;28;20435;-74
2022/06/02 04:23:27;;;;;;;12.48;4.93;;;;;;;24.63;42.91;99758.13;4999624;28;20503;-73
2022/06/02 04:26:17;;;;;;;11.20;5.32;;;;;;;24.60;43.13;99768.69;4998732;28;20517;-72
2022/06/02 04:29:27;;;;;;;10.73;5.20;;;;;;;24.78;42.90;99755.72;5031102;28;20049;-73
2022/06/02 04:32:29;;;;;;;12.60;5.30;;;;;;;24.86;42.60;99768.88;4993050;28;20049;-73
2022/06/02 04:35:14;;;;;;;12.63;5.47;;;;;;;24.61;42.95;99767.59;5013185;28;20143;-73
2022/06/02 04:37:59;;;;;;;11.18;5.88;;;;;;;24.74;42.96;99770.84;5030825;28;20132;-76
2022/06/02 04:40:46;;;;;;;8.95;5.38;;;;;;;24.83;42.72;99763.94;5029879;28;20120;-73
2022/06/02 04:43:33;;;;;;;11.40;5.47;;;;;;;24.92;42.78;99775.22;5012902;28;20500;-73
2022/06/02 04:46:34;;;;;;;11.02;6.00;;;;;;;25.09;42.27;99770.59;5028829;28;20053;-72
2022/06/02 04:49:04;;;;;;;16.05;6.32;;;;;;;24.93;42.56;99779.59;5029502;28;20037;-74
2022/06/02 04:51:29;;;;;;;9.95;5.78;;;;;;;25.08;42.37;99779.00;5028890;28;20041;-70
2022/06/02 04:54:16;;;;;;;12.93;5.75;;;;;;;25.42;41.57;99765.13;5002383;28;20046;-71
2022/06/02 04:56:58;;;;;;;11.25;6.05;;;;;;;25.45;41.49;99761.09;4991818;28;20065;-71
2022/06/02 04:59:39;;;;;;;14.05;6.05;;;;;;;25.63;41.39;99761.59;5008311;28;20072;-72
2022/06/02 05:02:26;;;;;;;10.52;5.82;;;;;;;25.63;41.83;99763.53;5018537;28;20088;-71
2022/06/02 05:05:23;;;;;;;9.85;5.97;;;;;;;25.62;41.67;99757.25;5016779;28;20041;-71
2022/06/02 05:07:52;;;;;;;19.60;6.28;;;;;;;25.73;41.44;99756.31;5023152;28;20183;-71
2022/06/02 05:10:24;;;;;;;11.88;7.00;;;;;;;25.78;41.35;99750.09;5017542;28;20042;-72
2022/06/02 05:13:10;;;;;;;11.68;6.43;;;;;;;25.71;41.25;99752.22;5016396;28;20042;-71
2022/06/02 05:16:06;;;;;;;14.93;6.72;;;;;;;25.92;41.10;99754.91;5010703;28;20061;-70
2022/06/02 05:18:35;;;;;;;10.75;6.28;;;;;;;26.03;41.15;99736.84;5004722;28;20411;-74
2022/06/02 05:21:25;;;;;;;17.05;7.15;;;;;;;26.08;40.77;99748.59;5011369;28;20108;-73
2022/06/02 05:24:15;;;;;;;10.73;6.70;;;;;;;26.32;40.42;99749.13;5011406;28;20052;-74
2022/06/02 05:27:07;;;;;;;10.50;6.93;;;;;;;26.52;39.81;99749.31;5026724;28;20123;-73
2022/06/02 05:29:54;;;;;;;12.18;6.80;;;;;;;26.42;40.22;99755.47;4997686;28;20056;-74
2022/06/02 05:32:39;;;;;;;15.57;6.80;;;;;;;26.27;40.45;99755.34;5029508;28;20060;-73
2022/06/02 05:35:12;;;;;;;15.68;7.10;;;;;;;26.35;40.14;99752.13;5029223;28;20045;-74
2022/06/02 05:37:51;;;;;;;12.07;7.65;;;;;;;26.44;40.02;99739.72;5031317;28;20416;-73
2022/06/02 05:40:38;;;;;;;13.18;6.88;;;;;;;26.76;39.79;99744.34;4982230;28;20132;-73
2022/06/02 05:43:33;;;;;;;17.20;6.68;;;;;;;26.67;39.70;99740.47;5014730;28;20049;-74
2022/06/02 05:46:22;;;;;;;12.10;7.43;;;;;;;26.54;40.25;99747.13;5031586;28;20049;-76
2022/06/02 05:49:02;;;;;;;11.88;6.97;;;;;;;26.95;39.74;99738.25;5012749;28;20049;-73
2022/06/02 05:51:49;;;;;;;14.25;6.60;;;;;;;27.49;38.71;99755.28;4985880;28;20042;-73
2022/06/02 05:54:29;;;;;;;14.93;7.57;;;;;;;27.62;38.45;99752.88;4998156;28;20065;-73
2022/06/02 05:57:11;;;;;;;14.50;6.82;;;;;;;27.63;38.24;99750.97;5003091;28;20495;-73
2022/06/02 06:00:14;;;;;;;12.95;6.47;;;;;;;27.83;37.51;99756.53;5014056;28;20066;-74
2022/06/02 06:02:42;;;;;;;15.18;6.53;;;;;;;27.45;37.86;99746.78;5001814;28;20046;-72
2022/06/02 06:05:20;;;;;;;12.63;5.75;;;;;;;27.79;37.37;99745.31;5021216;28;20514;-75
2022/06/02 06:08:07;;;;;;;10.85;5.68;;;;;;;28.13;37.07;99751.19;5030043;28;20151;-74
2022/06/02 06:10:38;;;;;;;14.48;6.13;;;;;;;28.09;36.84;99721.94;5031473;28;20069;-74
2022/06/02 06:13:10;;;;;;;11.93;5.10;;;;;;;28.30;36.67;99745.47;5029698;28;20041;-74
2022/06/02 06:15:51;;;;;;;10.45;6.03;;;;;;;28.44;36.14;99741.13;5027654;28;20041;-75
2022/06/02 06:18:22;;;;;;;13.18;4.88;;;;;;;28.42;36.35;99740.56;4980669;28;20129;-72
2022/06/02 06:21:10;;;;;;;16.88;4.95;;;;;;;28.60;35.98;99729.16;4973323;28;20592;-74
2022/06/02 06:23:51;;;;;;;11.05;5.55;;;;;;;28.99;36.00;99739.25;4989673;28;20042;-75
2022/06/02 06:27:04;;;;;;;12.05;4.85;;;;;;;28.76;35.56;99742.56;4991027;28;20700;-74
2022/06/02 06:29:52;;;;;;;13.38;5.20;;;;;;;28.66;35.56;99739.81;4956351;28;20109;-76
2022/06/02 06:32:23;;;;;;;13.45;5.20;;;;;;;28.33;35.55;99739.47;4959228;28;20082;-75
2022/06/02 06:35:07;;;;;;;14.35;5.57;;;;;;;28.57;35.35;99725.03;4975350;28;20050;-76
2022/06/02 06:37:51;;;;;;;14.30;4.82;;;;;;;28.53;35.55;99743.09;4991223;28;20455;-75
2022/06/02 06:40:55;;;;;;;13.95;4.78;;;;;;;28.68;35.34;99737.63;4992035;28;20038;-75
2022/06/02 06:43:29;;;;;;;13.40;5.22;;;;;;;29.01;35.48;99728.03;4917460;29;20043;-75
2022/06/02 06:46:13;;;;;;;6.90;3.90;;;;;;;28.95;35.15;99729.16;4982058;28;20420;-76
2022/06/02 06:48:49;;;;;;;10.05;3.70;;;;;;;29.17;35.14;99721.47;4991495;28;20550;-77
2022/06/02 06:51:40;;;;;;;9.93;4.40;;;;;;;29.49;34.35;99711.00;5008948;28;20515;-76
2022/06/02 06:54:24;;;;;;;7.00;4.50;;;;;;;29.66;33.87;99732.59;4974946;28;20104;-76
2022/06/02 06:56:49;;;;;;;11.32;4.63;;;;;;;29.50;34.19;99740.00;4991318;28;20094;-76
2022/06/02 06:59:43;;;;;;;15.07;4.25;;;;;;;29.95;34.28;99728.91;4958480;28;20496;-76
2022/06/02 07:02:18;;;;;;;9.82;4.10;;;;;;;30.22;33.86;99737.53;5007095;28;20042;-76
2022/06/02 07:05:04;;;;;;;7.47;3.47;;;;;;;29.92;33.45;99706.72;4991474;28;20052;-76
2022/06/02 07:07:42;;;;;;;8.30;4.53;;;;;;;30.45;31.94;99728.59;4990453;28;20060;-76
2022/06/02 07:10:12;;;;;;;10.77;3.90;;;;;;;30.68;32.24;99738.84;4992204;28;20051;-76
2022/06/02 07:13:04;;;;;;;7.55;4.15;;;;;;;31.17;31.20;99727.72;4958072;28;20133;-76
2022/06/02 07:15:44;;;;;;;9.43;3.40;;;;;;;31.38;31.84;99740.19;4978640;28;20501;-75
2022/06/02 07:18:35;;;;;;;5.30;3.35;;;;;;;31.81;30.73;99749.28;4990600;28;20047;-76
2022/06/02 07:21:10;;;;;;;10.63;3.63;;;;;;;32.45;29.95;99753.09;4990949;28;20058;-75
2022/06/02 07:24:15;;;;;;;8.18;2.85;;;;;;;32.89;28.61;99749.94;4974798;28;20038;-75
2022/06/02 07:27:09;;;;;;;4.28;2.42;;;;;;;33.52;27.64;99750.19;5007437;28;20077;-75
2022/06/02 07:30:00;;;;;;;8.70;3.08;;;;;;;34.02;26.46;99754.69;4957883;28;20057;-75
2022/06/02 07:32:46;;;;;;;5.93;3.03;;;;;;;34.96;25.73;99744.50;4959274;28;20077;-75
2022/06/02 07:35:30;;;;;;;7.05;2.67;;;;;;;36.05;23.71;99750.88;4992692;28;20053;-76
2022/06/02 07:38:07;;;;;;;11.18;2.60;;;;;;;36.88;22.20;99753.22;5007994;28;20093;-76
2022/06/02 07:41:05;;;;;;;5.30;2.28;;;;;;;38.29;20.96;99750.88;4992020;28;20046;-76
2022/06/02 07:43:31;;;;;;;5.78;2.10;;;;;;;39.29;19.73;99749.47;4959094;28;20088;-77
2022/06/02 07:46:24;;;;;;;6.68;2.00;;;;;;;40.96;17.79;99757.19;4990786;28;20481;-76
2022/06/02 07:49:11;;;;;;;3.55;1.80;;;;;;;42.94;15.84;99768.06;4990366;28;20050;-77
2022/06/02 07:51:49;;;;;;;4.80;2.00;;;;;;;44.61;14.19;99743.28;4991058;28;20088;-76
2022/06/02 07:54:38;;;;;;;5.18;1.90;;;;;;;46.42;12.47;99767.03;4989766;28;20044;-76
2022/06/02 07:57:41;;;;;;;4.80;2.10;;;;;;;46.44;12.36;99747.75;4957211;28;20136;-76
2022/06/02 08:00:07;;;;;;;7.43;1.85;;;;;;;47.55;11.93;99743.69;4990970;28;20054;-77
2022/06/02 08:03:18;;;;;;;5.20;1.90;;;;;;;49.23;10.78;99747.25;4992511;28;20176;-76
2022/06/02 08:06:02;;;;;;;2.97;1.50;;;;;;;49.99;10.17;99750.69;4992860;28;20057;-76
2022/06/02 08:08:58;;;;;;;8.60;1.88;;;;;;;49.53;9.75;99715.56;5009119;28;20058;-77
2022/06/02 08:11:24;;;;;;;5.68;2.00;;;;;;;49.42;9.76;99745.91;4961677;28;20823;-77
2022/06/02 08:13:59;;;;;;;5.00;1.52;;;;;;;49.40;9.61;99740.69;4976410;28;20041;-75
2022/06/02 08:16:45;;;;;;;3.08;1.80;;;;;;;49.33;9.77;99725.81;4976528;28;20414;-75
2022/06/02 08:19:38;;;;;;;5.05;1.60;;;;;;;50.07;9.29;99740.91;5008792;28;20120;-76
2022/06/02 08:22:09;;;;;;;6.38;1.67;;;;;;;51.42;8.53;99735.09;5007909;28;20053;-77
2022/06/02 08:24:56;;;;;;;3.95;1.55;;;;;;;51.85;7.91;99741.66;4975985;28;20136;-78
2022/06/02 08:27:47;;;;;;;3.65;1.75;;;;;;;51.43;8.22;99742.34;4976918;28;20107;-79
2022/06/02 08:30:18;;;;;;;2.95;1.50;;;;;;;51.67;8.14;99738.34;5008539;28;20049;-74
2022/06/02 08:33:04;;;;;;;2.33;1.33;;;;;;;51.47;8.18;99732.56;5008256;28;20046;-74
2022/06/02 08:35:33;;;;;;;3.15;1.50;;;;;;;51.26;8.61;99734.91;4992531;28;20119;-76
2022/06/02 08:38:14;;;;;;;4.90;1.48;;;;;;;51.89;8.25;99722.53;4992082;28;20038;-76
2022/06/02 08:40:44;;;;;;;4.47;1.60;;;;;;;52.02;8.08;99719.91;4976518;28;20448;-77
2022/06/02 08:43:22;;;;;;;3.50;1.55;;;;;;;52.23;8.03;99725.94;4976824;28;20046;-75
2022/06/02 08:46:25;;;;;;;4.35;1.45;;;;;;;53.55;7.54;99731.09;4994492;28;20052;-77
2022/06/02 08:49:06;;;;;;;4.72;1.80;;;;;;;52.86;7.58;99729.47;4976444;28;20052;-76
2022/06/02 08:52:04;;;;;;;7.97;2.20;;;;;;;52.53;7.41;99722.91;5008949;28;20100;-75
2022/06/02 08:54:49;;;;;;;4.03;1.73;;;;;;;52.31;7.56;99721.75;4976261;28;20642;-77
2022/06/02 08:57:45;;;;;;;3.92;1.75;;;;;;;51.80;7.69;99708.13;4976266;28;20054;-74
2022/06/02 09:00:25;;;;;;;6.78;2.05;;;;;;;50.99;8.64;99719.97;4991371;28;20137;-74
2022/06/02 09:03:22;;;;;;;4.10;1.88;;;;;;;48.79;10.14;99699.97;4976042;28;20136;-76
2022/06/02 09:05:57;;;;;;;6.13;2.05;;;;;;;50.08;9.54;99708.59;4991899;28;20050;-77
2022/06/02 09:08:35;;;;;;;5.60;1.98;;;;;;;51.66;8.02;99714.06;4975279;28;20045;-80
2022/06/02 09:11:13;;;;;;;5.18;2.50;;;;;;;52.26;7.73;99704.41;4973588;28;20450;-75
2022/06/02 09:13:41;;;;;;;7.57;2.10;;;;;;;52.75;7.55;99692.84;4990579;28;20119;-77
2022/06/02 09:16:24;;;;;;;4.75;2.05;;;;;;;52.21;7.64;99708.56;4974784;28;20042;-76
2022/06/02 09:19:25;;;;;;;8.00;2.20;;;;;;;49.69;9.43;99694.06;4975467;28;20050;-77
2022/06/02 09:22:10;;;;;;;6.03;2.08;;;;;;;48.27;10.29;99691.69;4923728;28;20074;-77
2022/06/02 09:24:50;;;;;;;6.88;1.83;;;;;;;48.15;11.00;99675.25;4976254;28;20042;-77
2022/06/02 09:27:43;;;;;;;5.95;1.83;;;;;;;50.47;8.91;99677.84;4977222;28;20057;-77
2022/06/02 09:30:14;;;;;;;8.05;2.10;;;;;;;52.33;7.92;99692.97;4991591;28;20360;-75
2022/06/02 09:33:33;;;;;;;8.05;2.47;;;;;;;51.88;8.32;99689.78;4976537;28;20049;-76
2022/06/02 09:36:10;;;;;;;11.05;2.25;;;;;;;52.14;7.61;99691.69;4990518;28;20053;-77
2022/06/02 09:38:41;;;;;;;7.95;2.40;;;;;;;51.86;7.82;99676.03;5007991;28;20034;-76
2022/06/02 09:41:28;;;;;;;5.13;2.60;;;;;;;52.21;7.94;99680.19;4975145;28;20427;-76
2022/06/02 09:44:17;;;;;;;11.88;2.90;;;;;;;52.32;7.38;99692.16;4975097;28;20419;-77
2022/06/02 09:47:14;;;;;;;4.68;2.20;;;;;;;50.68;8.57;99675.97;4974840;28;20903;-76
2022/06/02 09:49:57;;;;;;;5.47;2.20;;;;;;;50.21;9.21;99672.13;4990722;28;20076;-75
2022/06/02 09:52:41;;;;;;;7.25;2.30;;;;;;;51.73;8.29;99666.56;4979673;28;20464;-77
2022/06/02 09:55:39;;;;;;;6.68;1.92;;;;;;;52.90;7.51;99659.25;4974711;28;20136;-74
2022/06/02 09:58:21;;;;;;;5.50;2.10;;;;;;;52.54;7.44;99670.59;4994287;28;20050;-76
2022/06/02 10:00:50;;;;;;;41.33;3.22;;;;;;;53.34;7.11;99662.22;4991183;28;20107;-76
2022/06/02 10:03:45;;;;;;;3.15;1.85;;;;;;;55.02;6.25;99660.59;5007391;28;20054;-76
2022/06/02 10:06:22;;;;;;;8.15;2.20;;;;;;;56.03;5.68;99653.38;5007784;28;20084;-76
2022/06/02 10:09:04;;;;;;;7.15;2.10;;;;;;;54.67;5.99;99656.84;4975016;28;20049;-75
2022/06/02 10:15:13;;;;;;;4.78;2.00;;;;;;;54.27;6.82;99644.25;5008588;28;20080;-75
2022/06/02 10:18:00;;;;;;;5.93;2.40;;;;;;;54.60;6.34;99652.16;4975451;28;20133;-77
2022/06/02 10:20:45;;;;;;;4.30;2.08;;;;;;;55.17;5.79;99650.34;5007009;28;20141;-77
2022/06/02 10:23:32;;;;;;;3.63;1.98;;;;;;;56.02;5.45;99648.94;4974940;28;20068;-77
2022/06/02 10:25:58;;;;;;;7.00;2.00;;;;;;;54.77;6.00;99650.81;4976432;28;20579;-77
2022/06/02 10:28:33;;;;;;;6.45;1.85;;;;;;;54.41;6.68;99621.84;5009055;28;20204;-76
2022/06/02 10:31:18;;;;;;;3.45;1.75;;;;;;;53.75;6.87;99640.88;4991581;28;20396;-77
2022/06/02 10:34:05;;;;;;;4.75;1.90;;;;;;;52.91;6.93;99636.09;5008762;28;20395;-76
2022/06/02 10:36:56;;;;;;;4.50;1.80;;;;;;;48.75;9.49;99633.47;4960961;28;20045;-77
2022/06/02 10:39:38;;;;;;;5.57;2.10;;;;;;;47.87;10.42;99624.59;4978935;28;20045;-76
2022/06/02 10:42:25;;;;;;;4.63;2.20;;;;;;;45.25;12.69;99626.19;4978891;28;20052;-77
2022/06/02 10:45:16;;;;;;;7.45;2.20;;;;;;;43.67;14.48;99611.16;5011691;28;20415;-77
2022/06/02 10:48:09;;;;;;;10.75;2.10;;;;;;;44.06;14.05;99612.50;4962844;28;20081;-77
2022/06/02 10:50:59;;;;;;;6.88;2.33;;;;;;;44.66;13.58;99610.44;5010514;28;20152;-76
2022/06/02 10:53:43;;;;;;;5.82;2.13;;;;;;;46.34;11.86;99610.03;4977844;28;20041;-77
2022/06/02 10:56:21;;;;;;;5.88;2.10;;;;;;;46.48;11.77;99624.94;4962765;28;20049;-75
2022/06/02 10:59:33;;;;;;;4.85;1.90;;;;;;;46.59;12.15;99627.78;4996198;28;20057;-76
2022/06/02 11:02:19;;;;;;;3.60;1.95;;;;;;;46.34;11.93;99627.69;4994260;28;20073;-76
2022/06/02 11:04:45;;;;;;;7.20;2.50;;;;;;;44.94;12.96;99615.50;5010277;28;20054;-76
2022/06/02 11:07:29;;;;;;;3.30;1.90;;;;;;;44.72;13.41;99577.25;5010951;28;20064;-76
2022/06/02 11:10:22;;;;;;;3.30;1.90;;;;;;;45.14;13.41;99619.69;5012638;28;20149;-76
2022/06/02 11:13:15;;;;;;;8.05;2.50;;;;;;;45.09;12.52;99612.44;4980533;28;20038;-77
2022/06/02 11:16:19;;;;;;;4.82;2.10;;;;;;;44.73;13.50;99611.28;5012345;28;20123;-76
2022/06/02 11:18:59;;;;;;;6.43;2.17;;;;;;;43.12;14.08;99609.06;4950396;28;20133;-76
2022/06/02 11:21:47;;;;;;;6.95;2.15;;;;;;;41.70;15.73;99607.38;5010484;28;20191;-76
2022/06/02 11:24:24;;;;;;;5.13;2.20;;;;;;;40.91;16.83;99599.44;5010059;28;20510;-76
2022/06/02 11:27:27;;;;;;;5.32;2.10;;;;;;;39.96;18.39;99607.09;5010611;28;20158;-77
2022/06/02 11:30:08;;;;;;;7.55;2.10;;;;;;;39.80;18.59;99597.81;5011259;28;20048;-76
2022/06/02 11:32:44;;;;;;;3.35;2.15;;;;;;;38.87;19.30;99606.28;4993094;28;20132;-74
2022/06/02 11:35:31;;;;;;;8.60;1.98;;;;;;;37.91;20.13;99605.91;4993686;28;20069;-75
2022/06/02 11:38:49;;;;;;;9.82;2.40;;;;;;;37.74;20.66;99604.06;4979193;28;20050;-76
2022/06/02 11:41:26;;;;;;;7.30;2.40;;;;;;;36.84;21.28;99607.47;4971919;28;20045;-75
2022/06/02 11:44:04;;;;;;;6.43;2.70;;;;;;;36.22;22.06;99595.16;4977447;28;20079;-76
2022/06/02 11:46:44;;;;;;;4.38;2.20;;;;;;;36.05;22.23;99606.25;5009397;28;20405;-75
2022/06/02 11:49:26;;;;;;;5.38;2.35;;;;;;;35.67;23.06;99612.38;5009736;28;20121;-75
2022/06/02 11:52:13;;;;;;;8.73;2.60;;;;;;;35.48;23.38;99600.00;5008806;28;20057;-75
2022/06/02 11:54:52;;;;;;;3.83;2.10;;;;;;;35.27;22.71;99610.81;5008046;28;20052;-75
2022/06/02 11:58:00;;;;;;;4.20;2.10;;;;;;;35.28;22.74;99611.59;4976809;28;20458;-75
2022/06/02 12:00:25;;;;;;;9.68;2.50;;;;;;;35.18;22.94;99609.94;4976085;28;20049;-75
2022/06/02 12:03:12;;;;;;;7.63;2.20;;;;;;;35.38;22.89;99581.75;4976030;28;20049;-75
2022/06/02 12:05:50;;;;;;;6.45;2.10;;;;;;;35.15;23.09;99587.69;4976266;28;20427;-75
2022/06/02 12:08:53;;;;;;;7.28;2.60;;;;;;;34.78;23.72;99601.97;5009175;28;20558;-75
2022/06/02 12:11:48;;;;;;;7.47;2.40;;;;;;;34.99;23.34;99594.78;4976660;28;20072;-75
2022/06/02 12:14:49;;;;;;;8.40;2.83;;;;;;;35.28;22.70;99606.91;4991091;28;20056;-74
2022/06/02 12:17:34;;;;;;;3.97;2.00;;;;;;;35.23;22.92;99598.75;4973093;28;20042;-74
2022/06/02 12:20:03;;;;;;;6.72;2.63;;;;;;;35.07;23.50;99572.75;4973106;28;20046;-74
2022/06/02 12:23:06;;;;;;;5.73;2.17;;;;;;;35.22;23.42;99591.63;4988817;28;20105;-74
2022/06/02 12:26:20;;;;;;;10.30;2.80;;;;;;;35.30;23.52;99579.78;4956583;28;20056;-72
2022/06/02 12:29:06;;;;;;;4.03;2.33;;;;;;;35.29;22.83;99586.44;4960193;28;20042;-73
2022/06/02 12:31:52;;;;;;;4.32;2.10;;;;;;;35.12;22.97;99578.09;4988617;28;20046;-74
2022/06/02 12:34:47;;;;;;;6.57;2.65;;;;;;;35.43;22.48;99572.50;4955718;28;20050;-74
2022/06/02 12:37:49;;;;;;;6.50;2.25;;;;;;;35.35;22.19;99565.84;4972525;28;20050;-74
2022/06/02 12:40:33;;;;;;;4.97;2.30;;;;;;;35.46;22.62;99574.63;4972709;28;20078;-74
2022/06/02 12:43:20;;;;;;;7.45;2.70;;;;;;;35.28;22.77;99582.06;4972302;28;20516;-74
2022/06/02 12:46:08;;;;;;;13.90;2.72;;;;;;;34.76;23.42;99585.72;4987945;28;20479;-74
2022/06/02 12:49:08;;;;;;;6.00;2.97;;;;;;;35.07;23.43;99574.69;4944381;28;20077;-74
2022/06/02 12:51:56;;;;;;;6.32;2.53;;;;;;;34.98;23.94;99573.84;4954848;28;20475;-74
2022/06/02 12:54:40;;;;;;;5.00;2.50;;;;;;;34.62;23.84;99573.16;4971037;28;20574;-74
2022/06/02 12:57:18;;;;;;;6.57;2.60;;;;;;;34.72;23.75;99572.88;4971055;28;20061;-74
2022/06/02 12:59:58;;;;;;;4.75;2.40;;;;;;;34.88;23.06;99577.69;4971191;28;20057;-74
2022/06/02 13:02:52;;;;;;;5.72;2.72;;;;;;;34.41;24.04;99561.84;4971884;28;20122;-75
2022/06/02 13:05:37;;;;;;;5.72;2.70;;;;;;;34.87;23.61;99570.56;4972850;28;20520;-74